Terminal Aerodrome Forecast
Issued by NWS

Home | Current Version | Previous Version | Graphics & Text | Print | Product List | Glossary On
Versions: 1 2 3 4 5 6 7 8 9 10 11 12 13 14 15 16 17 18 19 20 21 22
000
FTUS43 KBIS 241136
TAFDIK
TAF
KDIK 241136Z 2412/2512 03008KT 1/2SM FG VCSH OVC003
     FM241700 36009KT P6SM OVC008
     FM242000 01009KT P6SM OVC010
     FM250500 04009KT P6SM OVC003=

USA.gov is the U.S. government's official web portal to all federal, state and local government web resources and services.